Time;durP1;ratioP1;P1;durP2;ratioP2;P2;SDS_P1;SDS_P2;PMS_P1;PMS_P2;Temp;Humidity;BMP_temperature;BMP_pressure;BME280_temperature;BME280_humidity;BME280_pressure;Samples;Min_cycle;Max_cycle;Signal;HPM_P1;HPM_P2
2022/02/07 14:36:33;;;;;;;8.27;1.67;;;;;;;3.13;67.02;99675.94;5005833;28;105854;-80
2022/02/07 14:38:59;;;;;;;7.55;2.83;;;;;;;3.18;67.75;99685.09;5015142;28;106200;-77
2022/02/07 14:41:24;;;;;;;8.32;3.03;;;;;;;3.26;68.25;99684.44;4983243;28;106456;-78
2022/02/07 14:43:53;;;;;;;6.72;1.88;;;;;;;3.33;68.55;99696.06;4984071;28;106389;-78
2022/02/07 14:46:23;;;;;;;13.60;5.03;;;;;;;3.42;69.02;99701.50;4998446;28;106057;-80
2022/02/07 14:48:49;;;;;;;17.43;6.47;;;;;;;3.48;68.51;99699.16;4983408;28;106109;-81
2022/02/07 14:51:14;;;;;;;7.10;1.83;;;;;;;3.56;68.05;99701.94;4983890;28;106046;-80
2022/02/07 14:53:45;;;;;;;3.28;1.25;;;;;;;3.63;68.10;99710.13;4983716;28;106408;-79
2022/02/07 14:56:11;;;;;;;8.77;1.88;;;;;;;3.71;68.47;99698.91;4983687;28;106094;-79
2022/02/07 14:58:37;;;;;;;4.40;1.40;;;;;;;3.78;67.85;99713.19;4984823;28;106033;-77
2022/02/07 15:01:03;;;;;;;5.93;1.80;;;;;;;3.83;67.56;99710.16;4983644;28;106594;-78
2022/02/07 15:03:29;;;;;;;8.88;2.22;;;;;;;3.89;67.83;99720.13;4983594;28;106600;-78
2022/02/07 15:05:56;;;;;;;6.88;1.75;;;;;;;3.93;67.84;99721.50;4984251;28;106158;-80
2022/02/07 15:08:23;;;;;;;6.43;1.67;;;;;;;3.94;67.20;99722.31;4984493;28;106243;-79
2022/02/07 15:10:48;;;;;;;5.68;1.85;;;;;;;3.98;67.32;99732.47;4985291;28;106261;-78
2022/02/07 15:13:14;;;;;;;9.20;2.17;;;;;;;4.06;67.64;99737.06;4983861;28;106056;-77
2022/02/07 15:15:39;;;;;;;8.88;2.40;;;;;;;4.11;67.17;99736.63;4982955;28;106135;-77
2022/02/07 15:18:07;;;;;;;7.93;1.90;;;;;;;4.14;67.01;99745.09;4984957;28;106320;-77
2022/02/07 15:20:33;;;;;;;6.32;1.92;;;;;;;4.21;67.12;99737.44;4982694;28;106250;-79
2022/02/07 15:22:59;;;;;;;6.22;2.42;;;;;;;4.35;66.51;99747.56;4983166;28;106022;-77
2022/02/07 15:25:30;;;;;;;8.18;2.08;;;;;;;4.34;66.04;99732.72;4983076;28;106724;-79
2022/02/07 15:27:56;;;;;;;6.75;1.42;;;;;;;4.38;66.13;99757.81;4984812;28;105943;-79
2022/02/07 15:30:24;;;;;;;10.27;4.30;;;;;;;4.43;65.64;99751.28;4983950;28;106072;-84
2022/02/07 15:32:52;;;;;;;8.80;2.20;;;;;;;4.54;66.24;99756.44;4981510;28;108816;-78
2022/02/07 15:35:19;;;;;;;5.63;1.60;;;;;;;4.58;65.90;99763.91;4980779;28;106179;-78
2022/02/07 15:37:44;;;;;;;10.07;1.88;;;;;;;4.57;65.67;99761.41;4983722;28;106423;-79
2022/02/07 15:40:10;;;;;;;9.45;1.88;;;;;;;4.53;65.31;99774.03;4983070;28;105889;-78
2022/02/07 15:42:36;;;;;;;6.28;1.63;;;;;;;4.48;64.97;99772.81;4982934;28;106049;-79
2022/02/07 15:45:03;;;;;;;5.75;1.77;;;;;;;4.35;65.19;99778.41;4984008;28;106017;-78
2022/02/07 15:47:38;;;;;;;7.00;1.40;;;;;;;4.19;65.27;99795.59;4971431;28;106218;-78
2022/02/07 15:50:09;;;;;;;3.00;1.20;;;;;;;4.07;65.42;99794.06;4968086;28;106319;-76
2022/02/07 15:52:38;;;;;;;7.15;1.50;;;;;;;3.88;65.26;99779.06;4970329;28;106713;-75
2022/02/07 15:55:05;;;;;;;8.95;2.10;;;;;;;3.65;65.25;99776.69;4970045;28;107351;-77
2022/02/07 15:57:30;;;;;;;5.07;1.80;;;;;;;3.47;65.45;99799.34;4970082;28;106118;-74
2022/02/07 15:59:55;;;;;;;6.53;1.58;;;;;;;3.31;66.08;99800.69;4968785;28;111589;-78
2022/02/07 16:02:24;;;;;;;8.32;2.88;;;;;;;3.26;66.29;99808.16;4971274;28;106025;-80
2022/02/07 16:04:49;;;;;;;5.55;2.75;;;;;;;3.25;66.63;99827.53;4971370;28;105886;-78
2022/02/07 16:07:14;;;;;;;7.15;2.53;;;;;;;3.25;67.03;99832.00;4972737;28;106451;-80
2022/02/07 16:09:40;;;;;;;6.57;2.70;;;;;;;3.24;66.57;99833.78;4971680;28;105895;-77
2022/02/07 16:12:11;;;;;;;5.25;2.28;;;;;;;3.25;66.70;99840.69;4970455;28;106813;-78
2022/02/07 16:14:37;;;;;;;9.65;2.85;;;;;;;3.30;66.92;99850.84;4970429;28;106027;-76
2022/02/07 16:17:03;;;;;;;8.65;2.22;;;;;;;3.37;67.44;99860.72;4972402;28;105918;-74
2022/02/07 16:19:29;;;;;;;4.70;2.53;;;;;;;3.47;67.32;99859.94;4971048;28;106221;-81
2022/02/07 16:21:55;;;;;;;4.25;1.80;;;;;;;3.50;67.04;99888.63;4970223;28;106066;-77
2022/02/07 16:24:21;;;;;;;10.15;2.53;;;;;;;3.37;66.51;99894.94;4969668;28;107169;-78
2022/02/07 16:26:48;;;;;;;6.65;2.05;;;;;;;3.22;66.47;99885.72;4971622;28;105969;-77
2022/02/07 16:29:14;;;;;;;10.02;2.10;;;;;;;2.98;66.76;99905.28;4971121;28;106120;-76
2022/02/07 16:31:39;;;;;;;5.53;1.63;;;;;;;2.74;66.70;99894.16;4970297;28;105973;-73
2022/02/07 16:34:05;;;;;;;8.00;2.17;;;;;;;2.54;66.87;99913.25;4969821;28;112627;-72
2022/02/07 16:36:30;;;;;;;6.40;2.83;;;;;;;2.36;67.39;99914.72;4971413;28;106218;-72
2022/02/07 16:38:55;;;;;;;4.82;1.85;;;;;;;2.27;68.29;99926.81;4970851;28;106711;-75
2022/02/07 16:41:23;;;;;;;10.55;3.78;;;;;;;2.26;69.20;99946.19;4970428;28;123527;-73
2022/02/07 16:43:50;;;;;;;8.93;2.75;;;;;;;2.31;69.52;99953.69;4970112;28;106564;-73
2022/02/07 16:46:31;;;;;;;8.15;2.15;;;;;;;2.36;69.12;99978.66;4970821;28;106490;-73
2022/02/07 16:48:58;;;;;;;5.47;2.33;;;;;;;2.45;69.69;99984.97;4970873;28;105812;-74
2022/02/07 16:51:24;;;;;;;6.60;2.95;;;;;;;2.50;69.94;99989.84;4970906;28;105973;-73
2022/02/07 16:53:50;;;;;;;9.85;3.08;;;;;;;2.56;69.75;99985.91;4952567;28;106069;-77
2022/02/07 16:56:15;;;;;;;7.85;3.35;;;;;;;2.63;70.04;99998.44;4970803;28;106139;-75
2022/02/07 16:58:41;;;;;;;15.57;5.57;;;;;;;2.71;69.89;99998.66;4969304;28;106249;-79
2022/02/07 17:01:10;;;;;;;14.30;4.78;;;;;;;2.74;70.24;100026.50;4968728;28;106569;-81
2022/02/07 17:03:37;;;;;;;8.45;3.30;;;;;;;2.75;69.73;100014.19;4969668;28;106210;-78
2022/02/07 17:06:03;;;;;;;5.25;1.48;;;;;;;2.68;70.11;99988.38;4967960;28;106417;-76
2022/02/07 17:08:28;;;;;;;11.68;3.13;;;;;;;2.56;69.77;99993.78;4968321;28;106300;-77
2022/02/07 17:10:53;;;;;;;4.25;2.20;;;;;;;2.45;69.43;100002.56;4968027;28;117940;-76
2022/02/07 17:13:19;;;;;;;7.05;1.73;;;;;;;2.29;69.70;100016.91;4968261;28;105947;-78
2022/02/07 17:15:44;;;;;;;9.63;2.10;;;;;;;2.18;70.17;100006.41;4968355;28;105988;-79
2022/02/07 17:18:10;;;;;;;6.03;2.33;;;;;;;2.08;70.36;100011.56;4967507;28;106142;-77
2022/02/07 17:20:35;;;;;;;10.60;3.53;;;;;;;1.93;70.29;100029.34;4968823;28;106152;-77
2022/02/07 17:23:01;;;;;;;6.85;3.08;;;;;;;1.83;70.71;100029.22;4968969;28;105970;-80
2022/02/07 17:25:26;;;;;;;7.65;2.60;;;;;;;1.80;70.91;100033.84;4968358;28;106081;-83
2022/02/07 17:27:52;;;;;;;13.15;4.40;;;;;;;1.75;71.01;100041.25;4968153;28;106960;-86
2022/02/07 17:30:18;;;;;;;11.80;3.40;;;;;;;1.61;70.99;100051.00;4967006;28;106423;-77
2022/02/07 17:32:44;;;;;;;7.55;2.83;;;;;;;1.47;71.06;100057.28;4967843;28;106049;-80
2022/02/07 17:35:12;;;;;;;8.88;3.72;;;;;;;1.33;70.88;100057.50;4968566;28;106063;-79
2022/02/07 17:37:38;;;;;;;9.68;2.75;;;;;;;1.19;70.89;100063.78;4967536;28;106602;-73
2022/02/07 17:40:07;;;;;;;8.45;2.33;;;;;;;1.08;71.24;100069.81;4966911;28;106403;-76
2022/02/07 17:42:38;;;;;;;9.80;3.13;;;;;;;0.99;71.65;100067.84;4967093;28;106023;-73
2022/02/07 17:45:05;;;;;;;;;;;;;;;0.92;71.77;100075.31;4968605;28;106125;-75
2022/02/07 17:47:30;;;;;;;11.50;3.83;;;;;;;0.86;71.75;100075.75;4967482;28;106098;-80
2022/02/07 17:49:55;;;;;;;11.02;3.38;;;;;;;0.81;72.39;100073.47;4969172;28;107375;-79
2022/02/07 17:52:21;;;;;;;13.75;3.20;;;;;;;0.80;72.65;100081.47;4957171;28;121720;-79
2022/02/07 17:54:46;;;;;;;13.18;3.28;;;;;;;0.78;72.62;100099.06;4948098;28;105981;-81
2022/02/07 17:57:13;;;;;;;11.07;3.22;;;;;;;0.77;72.95;100110.53;4951255;28;106259;-79
2022/02/07 17:59:39;;;;;;;8.35;3.25;;;;;;;0.77;72.98;100118.41;4967419;28;108174;-79
2022/02/07 18:02:04;;;;;;;7.72;3.17;;;;;;;0.80;73.60;100110.31;4965596;28;111752;-78
2022/02/07 18:04:29;;;;;;;8.55;2.55;;;;;;;0.83;73.16;100116.19;4967726;28;106403;-81
2022/02/07 18:06:55;;;;;;;8.85;3.03;;;;;;;0.88;73.52;100123.72;4967864;28;106193;-79
2022/02/07 18:09:20;;;;;;;7.22;2.28;;;;;;;0.91;73.41;100126.09;4965769;28;119798;-79
2022/02/07 18:11:46;;;;;;;11.20;2.17;;;;;;;0.94;73.43;100119.81;4965101;28;123236;-84
2022/02/07 18:14:11;;;;;;;10.43;3.10;;;;;;;0.93;73.37;100139.97;4967747;28;106127;-80
2022/02/07 18:16:36;;;;;;;5.82;2.88;;;;;;;0.97;73.63;100136.16;4967518;28;106223;-77
2022/02/07 18:19:04;;;;;;;7.10;2.55;;;;;;;1.04;73.80;100135.72;4966586;28;106150;-77
2022/02/07 18:21:39;;;;;;;13.77;3.22;;;;;;;1.08;73.82;100147.66;4966938;28;106063;-77
2022/02/07 18:24:07;;;;;;;8.20;2.20;;;;;;;1.15;73.90;100146.31;4963776;28;106052;-76
2022/02/07 18:26:32;;;;;;;16.48;3.10;;;;;;;1.24;74.02;100150.03;4967047;28;106372;-76
2022/02/07 18:28:58;;;;;;;10.93;3.15;;;;;;;1.28;73.70;100157.56;4964494;28;108316;-79
2022/02/07 18:31:23;;;;;;;14.60;3.17;;;;;;;1.33;73.82;100163.31;4966872;28;106134;-78
2022/02/07 18:33:49;;;;;;;10.15;2.95;;;;;;;1.40;73.91;100171.59;4967992;28;106595;-75
2022/02/07 18:36:15;;;;;;;9.65;3.28;;;;;;;1.48;73.90;100171.03;4967218;28;106032;-76
2022/02/07 18:38:42;;;;;;;13.23;4.32;;;;;;;1.54;73.73;100177.63;4948060;28;106040;-77
2022/02/07 18:41:13;;;;;;;14.20;4.15;;;;;;;1.56;73.54;100173.94;4947616;28;106497;-78
2022/02/07 18:43:39;;;;;;;;;;;;;;;1.61;73.43;100177.03;4949754;28;106413;-81
2022/02/07 18:46:07;;;;;;;11.73;3.88;;;;;;;1.64;73.72;100181.25;4948836;28;106017;-78
2022/02/07 18:48:35;;;;;;;12.13;3.60;;;;;;;1.71;73.96;100189.50;4948276;28;106490;-78
2022/02/07 18:51:01;;;;;;;7.75;2.47;;;;;;;1.73;73.60;100187.63;4960214;28;106078;-76
2022/02/07 18:53:28;;;;;;;12.80;3.42;;;;;;;1.74;73.70;100187.50;4967995;28;106439;-78
2022/02/07 18:55:53;;;;;;;15.07;3.80;;;;;;;1.76;73.36;100203.16;4966439;28;106161;-77
2022/02/07 18:58:33;;;;;;;9.65;3.47;;;;;;;1.78;73.65;100194.19;4966399;28;106082;-81
2022/02/07 19:03:31;;;;;;;12.52;3.05;;;;;;;1.86;73.39;100212.03;4962051;28;106773;-74
2022/02/07 19:06:30;;;;;;;7.60;2.92;;;;;;;1.86;73.28;100210.22;4966126;28;106429;-82
2022/02/07 19:08:54;;;;;;;5.87;3.23;;;;;;;1.88;73.23;100209.28;4965454;28;106611;-78
2022/02/07 19:11:24;;;;;;;11.75;2.63;;;;;;;1.92;73.48;100205.47;4966526;28;106080;-78
2022/02/07 19:13:50;;;;;;;;;;;;;;;1.94;73.01;100204.41;4968105;28;106035;-76
2022/02/07 19:16:15;;;;;;;9.23;2.00;;;;;;;1.95;73.00;100213.94;4964921;28;106231;-74
2022/02/07 19:18:51;;;;;;;9.98;2.60;;;;;;;1.94;72.72;100212.31;4965766;28;106612;-83
2022/02/07 19:21:18;;;;;;;12.05;2.55;;;;;;;1.90;72.83;100217.88;4967970;28;105997;-76
2022/02/07 19:23:49;;;;;;;5.15;1.80;;;;;;;1.86;72.45;100220.75;4969462;28;106044;-77
2022/02/07 19:26:26;;;;;;;11.48;2.78;;;;;;;1.87;72.78;100224.19;4969544;28;106142;-74
2022/02/07 19:29:02;;;;;;;10.18;2.55;;;;;;;1.86;72.88;100223.38;4966865;28;108421;-74
2022/02/07 19:31:29;;;;;;;7.50;2.60;;;;;;;1.88;72.79;100215.38;4967225;28;106560;-76
2022/02/07 19:34:03;;;;;;;10.30;2.15;;;;;;;1.92;73.01;100229.13;4969754;28;106117;-73
2022/02/07 19:36:29;;;;;;;8.35;2.40;;;;;;;1.92;72.75;100222.06;4969835;28;107393;-84
2022/02/07 19:38:56;;;;;;;7.68;2.22;;;;;;;1.95;72.56;100236.78;4955041;28;106519;-77
2022/02/07 19:41:43;;;;;;;7.80;3.05;;;;;;;1.97;72.65;100240.09;4970011;28;105920;-78
2022/02/07 19:44:14;;;;;;;7.15;2.35;;;;;;;2.00;72.59;100247.78;4970903;28;106033;-75
2022/02/07 19:46:40;;;;;;;7.53;2.72;;;;;;;1.97;72.29;100264.63;4970637;28;105851;-74
2022/02/07 19:49:05;;;;;;;10.52;2.38;;;;;;;1.99;72.01;100267.13;4971563;28;105968;-77
2022/02/07 19:51:31;;;;;;;4.50;2.03;;;;;;;1.97;72.20;100272.50;4971575;28;106073;-74
2022/02/07 19:53:56;;;;;;;9.82;2.88;;;;;;;1.96;72.38;100280.50;4971706;28;106281;-80
2022/02/07 19:56:23;;;;;;;5.28;2.15;;;;;;;1.94;72.14;100280.63;4970387;28;106206;-79
2022/02/07 19:58:49;;;;;;;6.85;2.38;;;;;;;1.94;72.17;100285.88;4969609;28;107810;-78
2022/02/07 20:01:19;;;;;;;17.35;4.40;;;;;;;1.95;72.01;100299.84;4969693;28;106110;-76
2022/02/07 20:03:45;;;;;;;8.17;2.73;;;;;;;1.94;72.04;100292.91;4970478;28;106385;-75
2022/02/07 20:06:10;;;;;;;5.75;2.53;;;;;;;1.93;72.37;100286.81;4969765;28;106247;-75
2022/02/07 20:08:35;;;;;;;6.05;2.22;;;;;;;1.94;72.32;100304.25;4970013;28;106141;-76
2022/02/07 20:11:01;;;;;;;10.13;3.00;;;;;;;1.95;71.65;100310.34;4970022;28;106435;-74
2022/02/07 20:13:29;;;;;;;6.63;1.92;;;;;;;1.97;72.21;100304.03;4970431;28;105844;-76
2022/02/07 20:15:55;;;;;;;9.30;3.08;;;;;;;1.97;71.77;100301.41;4970034;28;106202;-75
2022/02/07 20:18:20;;;;;;;8.50;2.33;;;;;;;1.96;71.64;100306.78;4969455;28;106737;-74
2022/02/07 20:20:47;;;;;;;7.40;2.05;;;;;;;1.98;71.98;100310.97;4970046;28;105875;-76
2022/02/07 20:23:13;;;;;;;7.22;2.80;;;;;;;1.99;71.91;100299.50;4972342;28;105888;-75
2022/02/07 20:25:39;;;;;;;9.20;2.63;;;;;;;1.98;71.57;100318.00;4970156;28;105824;-75
2022/02/07 20:28:07;;;;;;;6.85;2.45;;;;;;;1.96;72.03;100323.38;4969556;28;106034;-75
2022/02/07 20:30:35;;;;;;;12.48;2.65;;;;;;;1.95;72.05;100336.63;4967434;28;106059;-77
2022/02/07 20:33:03;;;;;;;7.50;2.13;;;;;;;1.94;71.89;100324.41;4969427;28;105966;-74
2022/02/07 20:35:29;;;;;;;5.53;1.73;;;;;;;1.95;72.04;100324.31;4966797;28;106322;-75
2022/02/07 20:37:55;;;;;;;7.90;2.17;;;;;;;1.96;72.18;100319.91;4966749;28;106161;-78
2022/02/07 20:40:20;;;;;;;7.70;2.20;;;;;;;1.96;71.83;100318.09;4967889;28;106185;-78
2022/02/07 20:42:46;;;;;;;8.75;2.17;;;;;;;1.93;72.09;100323.59;4967932;28;106191;-76
2022/02/07 20:45:14;;;;;;;5.20;1.35;;;;;;;1.90;71.80;100331.72;4966278;28;105871;-75
2022/02/07 20:47:43;;;;;;;13.85;4.80;;;;;;;1.88;71.94;100338.03;4969127;28;106185;-76
2022/02/07 20:50:10;;;;;;;12.30;3.17;;;;;;;1.91;72.02;100337.78;4968728;28;105983;-75
2022/02/07 20:52:35;;;;;;;5.78;2.05;;;;;;;1.88;72.22;100336.22;4970040;28;105988;-74
2022/02/07 20:55:00;;;;;;;8.55;2.85;;;;;;;1.86;72.04;100323.19;4969698;28;107348;-74
2022/02/07 20:57:26;;;;;;;8.93;2.55;;;;;;;1.84;72.17;100337.38;4968706;28;129409;-76
2022/02/07 20:59:52;;;;;;;9.80;2.17;;;;;;;1.84;71.98;100346.09;4969543;28;105935;-74
2022/02/07 21:02:17;;;;;;;5.57;2.58;;;;;;;1.85;71.89;100358.28;4969437;28;106181;-78
2022/02/07 21:04:48;;;;;;;4.57;1.50;;;;;;;1.86;71.78;100357.34;4969336;28;106138;-77
2022/02/07 21:07:14;;;;;;;13.32;3.45;;;;;;;1.82;71.70;100345.38;4966267;28;106162;-77
2022/02/07 21:09:42;;;;;;;3.67;2.00;;;;;;;1.84;72.15;100361.84;4969362;28;106937;-79
2022/02/07 21:12:09;;;;;;;9.57;2.25;;;;;;;1.85;72.13;100365.34;4970008;28;106000;-77
2022/02/07 21:14:36;;;;;;;7.60;2.40;;;;;;;1.84;71.79;100367.13;4969856;28;105955;-78
2022/02/07 21:17:02;;;;;;;10.00;2.17;;;;;;;1.82;71.66;100373.44;4969128;28;106233;-77
2022/02/07 21:19:29;;;;;;;13.23;3.25;;;;;;;1.81;71.70;100382.28;4967120;28;108938;-78
2022/02/07 21:21:59;;;;;;;8.45;2.50;;;;;;;1.83;71.95;100385.63;4970123;28;106641;-76
2022/02/07 21:24:26;;;;;;;7.93;2.30;;;;;;;1.86;71.85;100385.41;4969751;28;106587;-77
2022/02/07 21:26:51;;;;;;;6.72;1.65;;;;;;;1.90;72.03;100393.91;4969011;28;106460;-81
2022/02/07 21:29:17;;;;;;;12.57;2.17;;;;;;;1.92;71.75;100399.91;4969272;28;106010;-79
2022/02/07 21:31:42;;;;;;;7.72;2.22;;;;;;;1.93;71.84;100402.41;4971381;28;106263;-79
2022/02/07 21:34:08;;;;;;;7.35;2.58;;;;;;;1.94;72.13;100401.47;4979132;28;105977;-76
2022/02/07 21:36:35;;;;;;;9.27;1.88;;;;;;;1.96;71.84;100402.19;4977384;28;106535;-77
2022/02/07 21:39:03;;;;;;;6.20;2.28;;;;;;;2.00;71.50;100408.09;4970441;28;106090;-76
2022/02/07 21:41:29;;;;;;;5.38;1.80;;;;;;;2.02;71.66;100414.91;4969849;28;105894;-77
2022/02/07 21:43:57;;;;;;;6.13;1.65;;;;;;;2.03;71.85;100418.38;4966685;28;106358;-77
2022/02/07 21:46:23;;;;;;;7.57;2.40;;;;;;;2.04;71.72;100417.41;4967338;28;106440;-77
2022/02/07 21:48:49;;;;;;;13.50;3.28;;;;;;;2.06;71.48;100418.13;4967294;28;106196;-79
2022/02/07 21:51:14;;;;;;;11.73;2.28;;;;;;;2.08;71.50;100425.91;4970713;28;106100;-77
2022/02/07 21:53:40;;;;;;;6.32;2.05;;;;;;;2.10;71.59;100434.53;4969850;28;106207;-78
2022/02/07 21:56:07;;;;;;;6.00;2.05;;;;;;;2.12;71.73;100424.75;4970029;28;105834;-79
2022/02/07 21:58:33;;;;;;;10.57;3.33;;;;;;;2.13;71.51;100434.31;4969413;28;105811;-80
2022/02/07 22:00:59;;;;;;;10.02;2.33;;;;;;;2.15;71.61;100437.69;4969195;28;106004;-77
2022/02/07 22:03:24;;;;;;;7.60;2.67;;;;;;;2.16;71.32;100439.34;4968906;28;106215;-79
2022/02/07 22:05:50;;;;;;;10.40;2.03;;;;;;;2.16;71.27;100429.69;4966782;28;106347;-78
2022/02/07 22:08:15;;;;;;;11.68;2.25;;;;;;;2.16;71.36;100434.09;4968881;28;106055;-77
2022/02/07 22:10:44;;;;;;;7.90;2.13;;;;;;;2.16;71.15;100442.81;4969078;28;105896;-77
2022/02/07 22:13:14;;;;;;;7.22;1.88;;;;;;;2.16;71.56;100447.22;4968606;28;106116;-77
2022/02/07 22:15:53;;;;;;;12.85;2.30;;;;;;;2.18;71.59;100454.06;4968036;28;106673;-75
2022/02/07 22:18:20;;;;;;;11.55;1.58;;;;;;;2.23;71.55;100455.50;4968668;28;105928;-76
2022/02/07 22:21:02;;;;;;;14.30;2.78;;;;;;;2.24;71.40;100460.66;4967827;28;106003;-76
2022/02/07 22:23:30;;;;;;;7.68;1.70;;;;;;;2.24;71.19;100463.28;4968796;28;106290;-75
2022/02/07 22:26:00;;;;;;;12.30;2.10;;;;;;;2.27;71.30;100463.09;4967862;28;106016;-81
